createdAt,value
2023-04-07T00:00:30.016Z,6.20
2023-04-07T00:03:58.928Z,6.07
2023-04-07T00:07:06.214Z,4.25
2023-04-07T00:10:32.445Z,3.55
2023-04-07T00:13:40.648Z,3.03
2023-04-07T00:16:46.947Z,4.03
2023-04-07T00:20:01.620Z,7.30
2023-04-07T00:23:12.766Z,3.58
2023-04-07T00:26:22.818Z,3.42
2023-04-07T00:29:41.447Z,7.53
2023-04-07T00:32:46.891Z,5.55
2023-04-07T00:35:59.025Z,4.75
2023-04-07T00:39:12.816Z,4.82
2023-04-07T00:42:22.784Z,4.15
2023-04-07T00:45:38.882Z,4.60
2023-04-07T00:48:52.194Z,5.03
2023-04-07T00:51:58.939Z,3.95
2023-04-07T00:55:06.937Z,5.22
2023-04-07T00:58:17.841Z,6.38
2023-04-07T01:01:27.460Z,5.40
2023-04-07T01:04:43.014Z,4.70
2023-04-07T01:07:58.817Z,5.43
2023-04-07T01:11:07.216Z,5.80
2023-04-07T01:14:22.801Z,4.03
2023-04-07T01:17:33.235Z,8.15
2023-04-07T01:20:42.612Z,5.18
2023-04-07T01:24:03.633Z,5.93
2023-04-07T01:27:20.547Z,6.18
2023-04-07T01:30:35.049Z,3.28
2023-04-07T01:33:42.859Z,4.63
2023-04-07T01:36:54.959Z,4.18
2023-04-07T01:40:10.767Z,6.72
2023-04-07T01:43:19.240Z,6.45
2023-04-07T01:46:30.900Z,4.57
2023-04-07T01:49:39.140Z,5.03
2023-04-07T01:52:45.601Z,5.95
2023-04-07T01:55:51.180Z,4.60
2023-04-07T01:58:58.478Z,5.18
2023-04-07T02:02:07.403Z,6.97
2023-04-07T02:05:19.973Z,5.28
2023-04-07T02:08:29.572Z,4.63
2023-04-07T02:11:36.689Z,4.00
2023-04-07T02:14:42.312Z,3.67
2023-04-07T02:17:53.217Z,6.07
2023-04-07T02:21:00.931Z,5.65
2023-04-07T02:24:09.405Z,6.35
2023-04-07T02:27:14.868Z,5.82
2023-04-07T02:30:23.010Z,4.45
2023-04-07T02:33:31.142Z,3.53
2023-04-07T02:36:37.079Z,6.90
2023-04-07T02:39:42.202Z,5.28
2023-04-07T02:42:48.636Z,4.20
2023-04-07T02:45:55.574Z,6.65
2023-04-07T02:49:04.465Z,4.22
2023-04-07T02:52:09.634Z,4.10
2023-04-07T02:55:15.724Z,4.97
2023-04-07T02:58:21.511Z,5.90
2023-04-07T03:01:28.278Z,5.30
2023-04-07T03:04:38.812Z,7.18
2023-04-07T03:07:47.068Z,5.60
2023-04-07T03:10:55.166Z,6.85
2023-04-07T03:14:02.071Z,6.35
2023-04-07T03:17:07.775Z,5.45
2023-04-07T03:20:17.653Z,5.80
2023-04-07T03:23:24.190Z,3.88
2023-04-07T03:26:30.045Z,8.05
2023-04-07T03:29:35.539Z,6.10
2023-04-07T03:32:41.452Z,4.65
2023-04-07T03:35:49.876Z,4.03
2023-04-07T03:38:55.964Z,4.55
2023-04-07T03:42:02.471Z,6.07
2023-04-07T03:45:09.206Z,6.72
2023-04-07T03:48:17.756Z,4.10
2023-04-07T03:51:28.336Z,4.22
2023-04-07T03:54:35.636Z,3.90
2023-04-07T03:57:41.592Z,4.93
2023-04-07T04:00:47.146Z,5.28
2023-04-07T04:03:53.079Z,4.25
2023-04-07T04:07:02.252Z,4.60
2023-04-07T04:10:08.555Z,3.17
2023-04-07T04:13:13.832Z,3.92
2023-04-07T04:16:19.508Z,3.53
2023-04-07T04:19:24.868Z,3.25
2023-04-07T04:22:33.642Z,4.85
2023-04-07T04:25:39.903Z,2.45
2023-04-07T04:28:45.729Z,3.72
2023-04-07T04:31:51.718Z,4.50
2023-04-07T04:34:57.937Z,6.35
2023-04-07T04:38:08.897Z,4.88
2023-04-07T04:41:17.024Z,4.10
2023-04-07T04:44:22.739Z,5.82
2023-04-07T04:47:28.281Z,6.15
2023-04-07T04:50:33.596Z,5.85
2023-04-07T04:53:46.266Z,5.80
2023-04-07T04:56:55.270Z,7.95
2023-04-07T05:00:01.395Z,9.18
2023-04-07T05:03:07.086Z,5.28
2023-04-07T05:06:13.523Z,5.03
2023-04-07T05:09:22.033Z,6.30
2023-04-07T05:12:31.348Z,6.78
2023-04-07T05:15:37.572Z,5.43
2023-04-07T05:18:43.805Z,5.00
2023-04-07T05:21:49.518Z,8.50
2023-04-07T05:25:00.329Z,7.32
2023-04-07T05:28:08.110Z,6.10
2023-04-07T05:31:13.788Z,5.57
2023-04-07T05:34:20.572Z,8.05
2023-04-07T05:37:27.368Z,6.10
2023-04-07T05:40:54.430Z,4.72
2023-04-07T05:44:01.426Z,6.25
2023-04-07T05:47:09.611Z,10.18
2023-04-07T05:50:25.279Z,11.25
2023-04-07T05:53:33.324Z,12.70
2023-04-07T05:56:44.579Z,8.90
2023-04-07T05:59:51.109Z,7.45
2023-04-07T06:03:07.115Z,8.18
2023-04-07T06:06:13.756Z,7.10
2023-04-07T06:09:25.936Z,5.80
2023-04-07T06:12:43.305Z,3.60
2023-04-07T06:15:53.414Z,6.47
2023-04-07T06:19:00.735Z,4.35
2023-04-07T06:22:10.576Z,5.07
2023-04-07T06:25:16.509Z,6.25
2023-04-07T06:28:30.260Z,7.10
2023-04-07T06:31:36.839Z,4.63
2023-04-07T06:34:44.655Z,6.07
2023-04-07T06:37:54.599Z,6.47
2023-04-07T06:41:06.010Z,3.50
2023-04-07T06:44:14.897Z,4.32
2023-04-07T06:47:29.212Z,2.75
2023-04-07T06:50:37.597Z,4.18
2023-04-07T06:53:44.564Z,4.55
2023-04-07T06:56:53.646Z,4.90
2023-04-07T07:00:08.225Z,4.75
2023-04-07T07:03:13.892Z,4.63
2023-04-07T07:06:20.627Z,2.78
2023-04-07T07:09:53.640Z,3.45
2023-04-07T07:25:04.295Z,2.40
2023-04-07T07:29:10.584Z,3.78
2023-04-07T07:32:50.890Z,4.32
2023-04-07T07:48:43.003Z,4.07
2023-04-07T07:53:07.655Z,5.07
2023-04-07T07:56:56.144Z,3.78
2023-04-07T08:00:37.372Z,4.30
2023-04-07T08:16:18.997Z,5.28
2023-04-07T08:19:56.404Z,5.53
2023-04-07T08:23:02.418Z,7.30
2023-04-07T08:26:12.594Z,7.53
2023-04-07T08:30:00.966Z,8.50
2023-04-07T08:33:12.944Z,8.98
2023-04-07T08:40:35.676Z,11.18
2023-04-07T08:43:50.007Z,12.88
2023-04-07T08:46:59.864Z,12.07
2023-04-07T08:50:25.044Z,10.63
2023-04-07T08:53:49.041Z,10.38
2023-04-07T08:58:02.069Z,19.02
2023-04-07T09:02:07.922Z,21.05
2023-04-07T09:06:05.483Z,10.32
2023-04-07T09:13:17.828Z,8.73
2023-04-07T09:16:43.759Z,11.98
2023-04-07T09:20:04.140Z,15.98
2023-04-07T09:23:19.961Z,17.35
2023-04-07T09:26:31.748Z,13.02
2023-04-07T09:29:52.177Z,14.98
2023-04-07T09:33:01.558Z,11.50
2023-04-07T09:36:10.870Z,8.35
2023-04-07T09:39:16.880Z,13.55
2023-04-07T09:50:01.290Z,12.85
2023-04-07T09:53:49.770Z,10.90
2023-04-07T09:57:06.273Z,8.77
2023-04-07T10:00:19.942Z,12.52
2023-04-07T10:03:51.746Z,12.47
2023-04-07T10:07:20.296Z,15.32
2023-04-07T10:10:32.980Z,13.60
2023-04-07T10:13:41.457Z,12.00
2023-04-07T10:17:02.948Z,19.85
2023-04-07T10:20:15.092Z,14.85
2023-04-07T10:23:53.009Z,8.13
2023-04-07T10:27:03.562Z,10.98
2023-04-07T10:30:28.144Z,9.95
2023-04-07T10:34:18.298Z,12.00
2023-04-07T10:42:16.640Z,12.25
2023-04-07T10:45:52.598Z,11.20
2023-04-07T10:49:27.079Z,8.80
2023-04-07T10:56:28.889Z,16.02
2023-04-07T10:59:53.440Z,9.73
2023-04-07T11:03:06.140Z,11.63
2023-04-07T11:06:17.076Z,7.65
2023-04-07T11:09:26.184Z,9.32
2023-04-07T11:12:41.793Z,8.90
2023-04-07T11:15:50.835Z,6.70
2023-04-07T11:19:01.491Z,10.05
2023-04-07T11:22:30.370Z,9.27
2023-04-07T11:30:08.502Z,8.82
2023-04-07T11:33:41.101Z,10.98
2023-04-07T11:40:39.494Z,11.57
2023-04-07T11:43:59.287Z,10.70
2023-04-07T11:51:32.848Z,13.07
2023-04-07T12:02:24.816Z,13.00
2023-04-07T12:05:56.234Z,17.08
2023-04-07T12:09:38.746Z,13.10
2023-04-07T12:17:00.128Z,15.55
2023-04-07T12:24:18.996Z,13.23
2023-04-07T12:27:36.032Z,13.75
2023-04-07T12:30:48.267Z,11.98
2023-04-07T12:33:53.788Z,14.25
2023-04-07T12:36:59.865Z,13.13
2023-04-07T12:40:41.029Z,14.68
2023-04-07T12:44:34.557Z,11.18
2023-04-07T12:51:33.331Z,13.55
2023-04-07T12:54:59.311Z,9.48
2023-04-07T12:58:25.268Z,7.38
2023-04-07T13:01:48.351Z,9.90
2023-04-07T13:05:32.045Z,7.78
2023-04-07T13:08:59.736Z,7.55
2023-04-07T13:15:48.322Z,8.82
2023-04-07T13:19:17.180Z,8.35
2023-04-07T13:26:51.992Z,6.80
2023-04-07T13:30:39.561Z,8.13
2023-04-07T13:34:14.940Z,6.57
2023-04-07T13:45:06.062Z,9.77
2023-04-07T13:48:13.536Z,6.95
2023-04-07T13:51:25.781Z,7.80
2023-04-07T13:54:50.912Z,6.90
2023-04-07T13:58:27.323Z,10.27
2023-04-07T14:05:53.284Z,8.15
2023-04-07T14:09:13.968Z,7.00
2023-04-07T14:12:35.554Z,12.43
2023-04-07T14:16:01.067Z,12.07
2023-04-07T14:19:18.881Z,12.07
2023-04-07T14:22:39.355Z,7.78
2023-04-07T14:26:21.483Z,11.63
2023-04-07T14:29:55.892Z,8.35
2023-04-07T14:33:56.050Z,9.45
2023-04-07T14:37:58.626Z,7.32
2023-04-07T14:41:17.358Z,10.25
2023-04-07T14:44:33.588Z,11.75
2023-04-07T14:48:21.973Z,12.75
2023-04-07T14:51:33.582Z,11.68
2023-04-07T14:55:00.056Z,12.85
2023-04-07T14:58:52.663Z,11.68
2023-04-07T15:06:19.500Z,11.43
2023-04-07T15:09:48.682Z,14.60
2023-04-07T15:13:30.104Z,11.80
2023-04-07T15:16:53.228Z,14.32
2023-04-07T15:24:25.927Z,15.77
2023-04-07T15:28:32.367Z,15.90
2023-04-07T15:32:23.999Z,20.35
2023-04-07T15:35:51.192Z,16.05
2023-04-07T15:39:34.349Z,19.20
2023-04-07T15:42:58.635Z,19.60
2023-04-07T15:46:06.723Z,13.50
2023-04-07T15:49:43.148Z,25.13
2023-04-07T15:53:09.736Z,16.38
2023-04-07T15:56:17.426Z,18.02
2023-04-07T15:59:26.364Z,21.80
2023-04-07T16:02:42.143Z,21.30
2023-04-07T16:05:56.287Z,25.70
2023-04-07T16:09:21.319Z,30.65
2023-04-07T16:12:38.217Z,17.55
2023-04-07T16:16:00.493Z,16.45
2023-04-07T16:19:44.300Z,27.02
2023-04-07T16:23:00.126Z,37.00
2023-04-07T16:26:20.806Z,32.58
2023-04-07T16:29:35.859Z,20.60
2023-04-07T16:32:46.354Z,19.15
2023-04-07T16:35:59.928Z,20.48
2023-04-07T16:39:09.096Z,27.27
2023-04-07T16:42:14.743Z,27.70
2023-04-07T16:45:30.146Z,19.42
2023-04-07T16:48:39.140Z,29.95
2023-04-07T16:51:53.248Z,25.38
2023-04-07T16:55:01.855Z,23.00
2023-04-07T16:58:07.852Z,31.98
2023-04-07T17:01:16.027Z,28.23
2023-04-07T17:04:23.867Z,16.65
2023-04-07T17:07:32.744Z,22.90
2023-04-07T17:10:45.705Z,28.48
2023-04-07T17:13:57.541Z,28.40
2023-04-07T17:20:21.397Z,25.65
2023-04-07T17:23:29.889Z,31.83
2023-04-07T17:26:39.532Z,29.77
2023-04-07T17:29:45.877Z,24.55
2023-04-07T17:32:54.105Z,26.25
2023-04-07T17:36:00.989Z,24.45
2023-04-07T17:39:12.818Z,22.65
2023-04-07T17:42:22.633Z,29.08
2023-04-07T17:45:32.872Z,25.67
2023-04-07T17:48:44.228Z,25.27
2023-04-07T17:51:52.210Z,21.90
2023-04-07T17:55:04.232Z,22.65
2023-04-07T17:58:21.399Z,37.05
2023-04-07T18:01:33.304Z,22.98
2023-04-07T18:04:44.079Z,14.50
2023-04-07T18:07:55.776Z,24.35
2023-04-07T18:11:02.022Z,25.20
2023-04-07T18:14:11.954Z,25.30
2023-04-07T18:17:17.758Z,19.95
2023-04-07T18:20:27.933Z,26.23
2023-04-07T18:23:36.416Z,21.77
2023-04-07T18:26:52.533Z,20.97
2023-04-07T18:30:01.297Z,18.15
2023-04-07T18:33:07.903Z,31.30
2023-04-07T18:36:16.558Z,29.42
2023-04-07T18:39:31.247Z,24.42
2023-04-07T18:42:40.137Z,27.67
2023-04-07T18:45:56.740Z,23.02
2023-04-07T18:49:10.572Z,27.08
2023-04-07T18:52:18.659Z,18.23
2023-04-07T18:55:35.312Z,23.65
2023-04-07T18:58:46.188Z,22.73
2023-04-07T19:01:57.606Z,16.40
2023-04-07T19:05:05.296Z,20.92
2023-04-07T19:08:14.512Z,22.77
2023-04-07T19:11:24.172Z,22.95
2023-04-07T19:14:36.726Z,16.98
2023-04-07T19:17:46.584Z,14.70
2023-04-07T19:20:54.135Z,23.50
2023-04-07T19:24:00.143Z,18.48
2023-04-07T19:27:07.226Z,21.08
2023-04-07T19:30:15.096Z,17.38
2023-04-07T19:33:25.439Z,20.40
2023-04-07T19:36:35.606Z,18.73
2023-04-07T19:39:55.642Z,20.77
2023-04-07T19:43:09.284Z,15.35
2023-04-07T19:46:14.992Z,17.35
2023-04-07T19:49:26.251Z,13.55
2023-04-07T19:52:36.407Z,20.83
2023-04-07T19:55:52.497Z,20.80
2023-04-07T19:58:58.795Z,23.65
2023-04-07T20:02:09.131Z,24.33
2023-04-07T20:05:18.092Z,18.48
2023-04-07T20:08:24.495Z,15.85
2023-04-07T20:11:34.732Z,26.73
2023-04-07T20:14:40.926Z,23.33
2023-04-07T20:17:49.276Z,30.38
2023-04-07T20:21:06.464Z,15.40
2023-04-07T20:24:14.024Z,27.15
2023-04-07T20:27:25.493Z,19.33
2023-04-07T20:30:37.321Z,15.68
2023-04-07T20:33:43.382Z,23.73
2023-04-07T20:36:52.469Z,16.58
2023-04-07T20:40:09.556Z,23.15
2023-04-07T20:43:18.337Z,21.20
2023-04-07T20:46:26.782Z,24.55
2023-04-07T20:49:36.115Z,15.57
2023-04-07T20:52:48.367Z,19.45
2023-04-07T20:55:56.449Z,27.60
2023-04-07T20:59:02.386Z,19.77
2023-04-07T21:02:11.674Z,19.30
2023-04-07T21:05:20.775Z,22.88
2023-04-07T21:08:32.532Z,22.40
2023-04-07T21:11:39.380Z,15.27
2023-04-07T21:14:46.039Z,18.38
2023-04-07T21:17:57.621Z,17.73
2023-04-07T21:21:09.223Z,14.13
2023-04-07T21:24:18.815Z,13.95
2023-04-07T21:27:26.766Z,22.60
2023-04-07T21:30:33.010Z,22.60
2023-04-07T21:33:39.525Z,14.50
2023-04-07T21:36:45.150Z,21.55
2023-04-07T21:39:56.020Z,22.35
2023-04-07T21:43:03.980Z,19.33
2023-04-07T21:46:09.346Z,17.23
2023-04-07T21:49:15.851Z,21.05
2023-04-07T21:52:21.960Z,17.40
2023-04-07T21:55:30.430Z,24.55
2023-04-07T21:58:35.933Z,22.13
2023-04-07T22:01:47.296Z,26.25
2023-04-07T22:04:53.876Z,16.58
2023-04-07T22:08:00.346Z,28.13
2023-04-07T22:11:09.063Z,18.20
2023-04-07T22:14:15.158Z,20.65
2023-04-07T22:17:20.671Z,15.95
2023-04-07T22:20:27.454Z,21.70
2023-04-07T22:23:33.054Z,20.67
2023-04-07T22:26:41.949Z,17.50
2023-04-07T22:29:47.842Z,23.20
2023-04-07T22:32:53.890Z,24.42
2023-04-07T22:35:59.413Z,22.63
2023-04-07T22:39:05.974Z,21.65
2023-04-07T22:42:15.235Z,23.40
2023-04-07T22:45:22.383Z,15.82
2023-04-07T22:48:28.309Z,16.63
2023-04-07T22:51:34.348Z,19.85
2023-04-07T22:54:41.043Z,27.05
2023-04-07T22:57:50.874Z,19.45
2023-04-07T23:00:56.447Z,27.00
2023-04-07T23:04:02.448Z,20.67
2023-04-07T23:07:07.919Z,18.33
2023-04-07T23:10:15.370Z,20.65
2023-04-07T23:13:23.963Z,20.33
2023-04-07T23:16:29.740Z,21.15
2023-04-07T23:19:35.283Z,23.80
2023-04-07T23:22:40.835Z,22.63
2023-04-07T23:25:45.985Z,19.75
2023-04-07T23:28:54.270Z,21.60
2023-04-07T23:32:04.533Z,24.45
2023-04-07T23:35:10.940Z,21.17
2023-04-07T23:38:16.512Z,22.20
2023-04-07T23:41:22.473Z,17.25
2023-04-07T23:44:30.142Z,23.67
2023-04-07T23:47:35.842Z,22.88
2023-04-07T23:50:44.458Z,16.95
2023-04-07T23:53:50.604Z,18.63
2023-04-07T23:56:56.118Z,17.80
